Disclaimer

Please do not use the information listed here in-flight or in-navigation, as they are not provided to us by the airports but are provided by volunteers, so they might be outdated.

Search


Regions


Airport information page

Radio informations:
BELEM TWR - 118.7 MHz
BELEM OPS - 122.5 MHz
BELEM ATIS - 127.6 MHz
BELEM APP - 119.05 MHz

Airport informations:
Latitude: 01° 22' 45.30" S
Longitude: 048° 28' 34.65" W
Elevation: 54 feet - 16 meters
Operating hours: 24 hour operations
Operating agency: Military-civil joint use airport
Timezone: UTC-3(-2DT)
Fuel: Jet A1, without icing nhibitor.

100/130 octane gasoline, leaded, MIL-L-5572F (GREEN)

Runway information:
02/20 - 6004 x 148 feet< - >1830 x 45 meters
06/24 - 9180 x 148 feet< - >2798 x 45 meters

Recent METARs:
SBBE 190800Z 07002KT CAVOK 25/23 Q1009
SBBE 190900Z 06003KT 5000 BR SCT017 25/23 Q1010
SBBE 190900Z 06003KT 5000 BR SCT017 25/23 Q1010

Airport on the map: